sensor_id;sensor_type;location;lat;lon;timestamp;P1;durP1;ratioP1;P2;durP2;ratioP2
27744;SDS011;61387;48.112;8.616;2023-06-19T00:02:06;8.50;;;6.30;;
27744;SDS011;61387;48.112;8.616;2023-06-19T00:04:32;9.67;;;7.57;;
27744;SDS011;61387;48.112;8.616;2023-06-19T00:06:59;10.07;;;7.07;;
27744;SDS011;61387;48.112;8.616;2023-06-19T00:09:25;8.57;;;6.82;;
27744;SDS011;61387;48.112;8.616;2023-06-19T00:11:50;8.07;;;6.67;;
27744;SDS011;61387;48.112;8.616;2023-06-19T00:14:16;8.60;;;7.15;;
27744;SDS011;61387;48.112;8.616;2023-06-19T00:16:43;8.45;;;6.68;;
27744;SDS011;61387;48.112;8.616;2023-06-19T00:19:09;7.95;;;6.32;;
27744;SDS011;61387;48.112;8.616;2023-06-19T00:21:35;10.73;;;7.20;;
27744;SDS011;61387;48.112;8.616;2023-06-19T00:24:02;8.35;;;7.20;;
27744;SDS011;61387;48.112;8.616;2023-06-19T00:26:28;11.40;;;6.70;;
27744;SDS011;61387;48.112;8.616;2023-06-19T00:28:53;8.60;;;7.13;;
27744;SDS011;61387;48.112;8.616;2023-06-19T00:31:19;8.40;;;6.55;;
27744;SDS011;61387;48.112;8.616;2023-06-19T00:33:45;9.73;;;7.00;;
27744;SDS011;61387;48.112;8.616;2023-06-19T00:36:15;10.00;;;7.82;;
27744;SDS011;61387;48.112;8.616;2023-06-19T00:38:44;9.48;;;7.20;;
27744;SDS011;61387;48.112;8.616;2023-06-19T00:41:10;9.50;;;7.07;;
27744;SDS011;61387;48.112;8.616;2023-06-19T00:43:36;8.23;;;7.17;;
27744;SDS011;61387;48.112;8.616;2023-06-19T00:46:02;10.45;;;7.35;;
27744;SDS011;61387;48.112;8.616;2023-06-19T00:48:28;8.90;;;6.72;;
27744;SDS011;61387;48.112;8.616;2023-06-19T00:50:56;9.63;;;8.27;;
27744;SDS011;61387;48.112;8.616;2023-06-19T00:53:22;9.77;;;8.63;;
27744;SDS011;61387;48.112;8.616;2023-06-19T00:55:49;10.25;;;8.20;;
27744;SDS011;61387;48.112;8.616;2023-06-19T00:58:16;9.85;;;6.72;;
27744;SDS011;61387;48.112;8.616;2023-06-19T01:00:42;8.32;;;5.70;;
27744;SDS011;61387;48.112;8.616;2023-06-19T01:03:08;7.80;;;5.40;;
27744;SDS011;61387;48.112;8.616;2023-06-19T01:05:34;8.05;;;5.07;;
27744;SDS011;61387;48.112;8.616;2023-06-19T01:10:38;7.47;;;5.22;;
27744;SDS011;61387;48.112;8.616;2023-06-19T01:13:14;7.68;;;5.30;;
27744;SDS011;61387;48.112;8.616;2023-06-19T01:15:46;7.20;;;5.33;;
27744;SDS011;61387;48.112;8.616;2023-06-19T01:18:12;8.00;;;5.03;;
27744;SDS011;61387;48.112;8.616;2023-06-19T01:20:38;6.93;;;4.93;;
27744;SDS011;61387;48.112;8.616;2023-06-19T01:23:07;7.40;;;5.20;;
27744;SDS011;61387;48.112;8.616;2023-06-19T01:25:34;7.10;;;4.83;;
27744;SDS011;61387;48.112;8.616;2023-06-19T01:28:00;6.83;;;4.83;;
27744;SDS011;61387;48.112;8.616;2023-06-19T01:30:27;8.23;;;4.53;;
27744;SDS011;61387;48.112;8.616;2023-06-19T01:32:54;5.95;;;4.32;;
27744;SDS011;61387;48.112;8.616;2023-06-19T01:35:27;5.22;;;4.00;;
27744;SDS011;61387;48.112;8.616;2023-06-19T01:37:54;7.75;;;4.07;;
27744;SDS011;61387;48.112;8.616;2023-06-19T01:40:20;7.03;;;4.10;;
27744;SDS011;61387;48.112;8.616;2023-06-19T01:42:51;7.00;;;4.50;;
27744;SDS011;61387;48.112;8.616;2023-06-19T01:45:17;5.62;;;3.67;;
27744;SDS011;61387;48.112;8.616;2023-06-19T01:47:43;5.47;;;3.93;;
27744;SDS011;61387;48.112;8.616;2023-06-19T01:50:10;5.00;;;3.50;;
27744;SDS011;61387;48.112;8.616;2023-06-19T01:52:41;6.37;;;4.20;;
27744;SDS011;61387;48.112;8.616;2023-06-19T01:55:07;5.10;;;3.60;;
27744;SDS011;61387;48.112;8.616;2023-06-19T01:57:34;7.03;;;3.65;;
27744;SDS011;61387;48.112;8.616;2023-06-19T02:00:01;5.78;;;3.70;;
27744;SDS011;61387;48.112;8.616;2023-06-19T02:02:27;6.68;;;3.90;;
27744;SDS011;61387;48.112;8.616;2023-06-19T02:04:53;4.80;;;3.40;;
27744;SDS011;61387;48.112;8.616;2023-06-19T02:07:18;5.75;;;3.58;;
27744;SDS011;61387;48.112;8.616;2023-06-19T02:09:44;4.47;;;3.42;;
27744;SDS011;61387;48.112;8.616;2023-06-19T02:12:09;4.67;;;3.43;;
27744;SDS011;61387;48.112;8.616;2023-06-19T02:14:35;5.63;;;3.47;;
27744;SDS011;61387;48.112;8.616;2023-06-19T02:17:01;5.77;;;4.10;;
27744;SDS011;61387;48.112;8.616;2023-06-19T02:19:27;5.60;;;3.80;;
27744;SDS011;61387;48.112;8.616;2023-06-19T02:21:53;9.20;;;4.27;;
27744;SDS011;61387;48.112;8.616;2023-06-19T02:24:19;7.07;;;3.83;;
27744;SDS011;61387;48.112;8.616;2023-06-19T02:26:45;5.10;;;3.97;;
27744;SDS011;61387;48.112;8.616;2023-06-19T02:29:11;6.22;;;4.30;;
27744;SDS011;61387;48.112;8.616;2023-06-19T02:31:37;6.30;;;4.23;;
27744;SDS011;61387;48.112;8.616;2023-06-19T02:34:03;6.57;;;4.20;;
27744;SDS011;61387;48.112;8.616;2023-06-19T02:36:28;4.77;;;3.40;;
27744;SDS011;61387;48.112;8.616;2023-06-19T02:38:55;5.60;;;3.80;;
27744;SDS011;61387;48.112;8.616;2023-06-19T02:41:21;5.37;;;3.73;;
27744;SDS011;61387;48.112;8.616;2023-06-19T02:43:47;4.27;;;3.20;;
27744;SDS011;61387;48.112;8.616;2023-06-19T02:46:12;5.57;;;4.23;;
27744;SDS011;61387;48.112;8.616;2023-06-19T02:48:38;11.20;;;4.20;;
27744;SDS011;61387;48.112;8.616;2023-06-19T02:51:04;6.67;;;3.93;;
27744;SDS011;61387;48.112;8.616;2023-06-19T02:53:30;5.10;;;3.40;;
27744;SDS011;61387;48.112;8.616;2023-06-19T02:55:55;6.68;;;4.37;;
27744;SDS011;61387;48.112;8.616;2023-06-19T02:58:21;5.47;;;3.77;;
27744;SDS011;61387;48.112;8.616;2023-06-19T03:00:47;5.07;;;3.67;;
27744;SDS011;61387;48.112;8.616;2023-06-19T03:03:13;6.50;;;3.53;;
27744;SDS011;61387;48.112;8.616;2023-06-19T03:05:39;4.70;;;3.30;;
27744;SDS011;61387;48.112;8.616;2023-06-19T03:08:05;5.50;;;3.45;;
27744;SDS011;61387;48.112;8.616;2023-06-19T03:10:31;4.68;;;3.33;;
27744;SDS011;61387;48.112;8.616;2023-06-19T03:12:57;5.40;;;3.60;;
27744;SDS011;61387;48.112;8.616;2023-06-19T03:15:24;5.50;;;3.80;;
27744;SDS011;61387;48.112;8.616;2023-06-19T03:17:49;6.12;;;3.65;;
27744;SDS011;61387;48.112;8.616;2023-06-19T03:20:15;5.43;;;3.45;;
27744;SDS011;61387;48.112;8.616;2023-06-19T03:22:41;6.60;;;3.70;;
27744;SDS011;61387;48.112;8.616;2023-06-19T03:25:07;8.23;;;4.00;;
27744;SDS011;61387;48.112;8.616;2023-06-19T03:27:33;7.25;;;4.07;;
27744;SDS011;61387;48.112;8.616;2023-06-19T03:29:59;6.70;;;3.70;;
27744;SDS011;61387;48.112;8.616;2023-06-19T03:32:24;5.77;;;4.00;;
27744;SDS011;61387;48.112;8.616;2023-06-19T03:34:50;6.80;;;4.13;;
27744;SDS011;61387;48.112;8.616;2023-06-19T03:37:16;7.97;;;4.23;;
27744;SDS011;61387;48.112;8.616;2023-06-19T03:39:42;6.77;;;4.13;;
27744;SDS011;61387;48.112;8.616;2023-06-19T03:42:07;6.50;;;4.00;;
27744;SDS011;61387;48.112;8.616;2023-06-19T03:44:34;6.72;;;3.92;;
27744;SDS011;61387;48.112;8.616;2023-06-19T03:46:59;7.43;;;4.10;;
27744;SDS011;61387;48.112;8.616;2023-06-19T03:49:25;7.43;;;4.40;;
27744;SDS011;61387;48.112;8.616;2023-06-19T03:51:51;5.47;;;4.03;;
27744;SDS011;61387;48.112;8.616;2023-06-19T03:54:19;6.13;;;4.33;;
27744;SDS011;61387;48.112;8.616;2023-06-19T03:56:45;7.93;;;4.60;;
27744;SDS011;61387;48.112;8.616;2023-06-19T03:59:11;7.67;;;4.67;;
27744;SDS011;61387;48.112;8.616;2023-06-19T04:01:37;5.53;;;4.00;;
27744;SDS011;61387;48.112;8.616;2023-06-19T04:04:02;6.07;;;4.20;;
27744;SDS011;61387;48.112;8.616;2023-06-19T04:06:28;6.63;;;4.07;;
27744;SDS011;61387;48.112;8.616;2023-06-19T04:08:54;6.40;;;4.45;;
27744;SDS011;61387;48.112;8.616;2023-06-19T04:11:20;6.20;;;4.27;;
27744;SDS011;61387;48.112;8.616;2023-06-19T04:13:46;6.70;;;4.40;;
27744;SDS011;61387;48.112;8.616;2023-06-19T04:16:12;7.80;;;4.60;;
27744;SDS011;61387;48.112;8.616;2023-06-19T04:18:37;6.00;;;4.70;;
27744;SDS011;61387;48.112;8.616;2023-06-19T04:21:03;6.93;;;4.70;;
27744;SDS011;61387;48.112;8.616;2023-06-19T04:23:29;7.23;;;4.93;;
27744;SDS011;61387;48.112;8.616;2023-06-19T04:25:55;7.70;;;4.63;;
27744;SDS011;61387;48.112;8.616;2023-06-19T04:28:21;7.13;;;4.77;;
27744;SDS011;61387;48.112;8.616;2023-06-19T04:30:47;9.33;;;5.80;;
27744;SDS011;61387;48.112;8.616;2023-06-19T04:33:13;13.27;;;7.80;;
27744;SDS011;61387;48.112;8.616;2023-06-19T04:35:39;8.97;;;5.83;;
27744;SDS011;61387;48.112;8.616;2023-06-19T04:38:08;8.60;;;5.45;;
27744;SDS011;61387;48.112;8.616;2023-06-19T04:40:34;7.33;;;5.20;;
27744;SDS011;61387;48.112;8.616;2023-06-19T04:43:03;7.07;;;5.27;;
27744;SDS011;61387;48.112;8.616;2023-06-19T04:45:30;5.77;;;4.40;;
27744;SDS011;61387;48.112;8.616;2023-06-19T04:47:56;7.27;;;4.00;;
27744;SDS011;61387;48.112;8.616;2023-06-19T04:50:22;7.50;;;4.87;;
27744;SDS011;61387;48.112;8.616;2023-06-19T04:52:47;6.90;;;4.53;;
27744;SDS011;61387;48.112;8.616;2023-06-19T04:55:15;8.77;;;5.40;;
27744;SDS011;61387;48.112;8.616;2023-06-19T04:57:41;9.83;;;5.43;;
27744;SDS011;61387;48.112;8.616;2023-06-19T05:00:07;9.30;;;5.10;;
27744;SDS011;61387;48.112;8.616;2023-06-19T05:02:35;8.67;;;5.00;;
27744;SDS011;61387;48.112;8.616;2023-06-19T05:05:01;7.27;;;5.00;;
27744;SDS011;61387;48.112;8.616;2023-06-19T05:07:31;6.67;;;5.17;;
27744;SDS011;61387;48.112;8.616;2023-06-19T05:09:57;9.57;;;5.00;;
27744;SDS011;61387;48.112;8.616;2023-06-19T05:12:23;6.65;;;4.62;;
27744;SDS011;61387;48.112;8.616;2023-06-19T05:14:49;8.37;;;4.63;;
27744;SDS011;61387;48.112;8.616;2023-06-19T05:17:15;6.93;;;4.53;;
27744;SDS011;61387;48.112;8.616;2023-06-19T05:19:41;4.83;;;3.87;;
27744;SDS011;61387;48.112;8.616;2023-06-19T05:22:06;6.27;;;4.00;;
27744;SDS011;61387;48.112;8.616;2023-06-19T05:24:32;5.03;;;4.13;;
27744;SDS011;61387;48.112;8.616;2023-06-19T05:26:58;5.80;;;4.20;;
27744;SDS011;61387;48.112;8.616;2023-06-19T05:29:24;5.60;;;4.23;;
27744;SDS011;61387;48.112;8.616;2023-06-19T05:31:50;6.93;;;4.33;;
27744;SDS011;61387;48.112;8.616;2023-06-19T05:34:16;5.77;;;4.40;;
27744;SDS011;61387;48.112;8.616;2023-06-19T05:36:42;5.30;;;3.80;;
27744;SDS011;61387;48.112;8.616;2023-06-19T05:39:10;6.57;;;4.17;;
27744;SDS011;61387;48.112;8.616;2023-06-19T05:41:35;5.60;;;4.07;;
27744;SDS011;61387;48.112;8.616;2023-06-19T05:44:01;5.93;;;4.70;;
27744;SDS011;61387;48.112;8.616;2023-06-19T05:46:27;5.90;;;4.40;;
27744;SDS011;61387;48.112;8.616;2023-06-19T05:48:53;7.07;;;4.57;;
27744;SDS011;61387;48.112;8.616;2023-06-19T05:51:22;5.87;;;4.50;;
27744;SDS011;61387;48.112;8.616;2023-06-19T05:53:48;7.03;;;4.67;;
27744;SDS011;61387;48.112;8.616;2023-06-19T05:56:14;5.63;;;4.23;;
27744;SDS011;61387;48.112;8.616;2023-06-19T05:58:40;6.37;;;4.50;;
27744;SDS011;61387;48.112;8.616;2023-06-19T06:01:06;7.33;;;4.27;;
27744;SDS011;61387;48.112;8.616;2023-06-19T06:03:32;5.70;;;4.57;;
27744;SDS011;61387;48.112;8.616;2023-06-19T06:05:58;8.80;;;5.50;;
27744;SDS011;61387;48.112;8.616;2023-06-19T06:08:28;6.10;;;4.43;;
27744;SDS011;61387;48.112;8.616;2023-06-19T06:10:54;6.37;;;4.30;;
27744;SDS011;61387;48.112;8.616;2023-06-19T06:13:20;6.43;;;4.20;;
27744;SDS011;61387;48.112;8.616;2023-06-19T06:15:46;7.07;;;4.23;;
27744;SDS011;61387;48.112;8.616;2023-06-19T06:18:12;6.50;;;4.50;;
27744;SDS011;61387;48.112;8.616;2023-06-19T06:20:38;8.10;;;4.50;;
27744;SDS011;61387;48.112;8.616;2023-06-19T06:23:04;5.87;;;4.33;;
27744;SDS011;61387;48.112;8.616;2023-06-19T06:25:30;7.75;;;5.30;;
27744;SDS011;61387;48.112;8.616;2023-06-19T06:27:55;6.67;;;5.10;;
27744;SDS011;61387;48.112;8.616;2023-06-19T06:30:21;8.63;;;6.62;;
27744;SDS011;61387;48.112;8.616;2023-06-19T06:32:48;9.65;;;5.70;;
27744;SDS011;61387;48.112;8.616;2023-06-19T06:35:14;8.20;;;5.40;;
27744;SDS011;61387;48.112;8.616;2023-06-19T06:37:40;7.73;;;5.60;;
27744;SDS011;61387;48.112;8.616;2023-06-19T06:40:06;7.67;;;5.97;;
27744;SDS011;61387;48.112;8.616;2023-06-19T06:42:36;8.73;;;5.80;;
27744;SDS011;61387;48.112;8.616;2023-06-19T06:45:02;9.13;;;6.40;;
27744;SDS011;61387;48.112;8.616;2023-06-19T06:47:28;8.77;;;6.60;;
27744;SDS011;61387;48.112;8.616;2023-06-19T06:49:53;7.60;;;5.63;;
27744;SDS011;61387;48.112;8.616;2023-06-19T06:52:19;7.57;;;6.05;;
27744;SDS011;61387;48.112;8.616;2023-06-19T06:54:45;9.20;;;5.90;;
27744;SDS011;61387;48.112;8.616;2023-06-19T06:57:11;7.60;;;6.60;;
27744;SDS011;61387;48.112;8.616;2023-06-19T06:59:37;8.10;;;5.65;;
27744;SDS011;61387;48.112;8.616;2023-06-19T07:02:03;10.20;;;6.60;;
27744;SDS011;61387;48.112;8.616;2023-06-19T07:04:29;8.17;;;6.63;;
27744;SDS011;61387;48.112;8.616;2023-06-19T07:06:55;8.00;;;6.10;;
27744;SDS011;61387;48.112;8.616;2023-06-19T07:09:23;8.00;;;5.55;;
27744;SDS011;61387;48.112;8.616;2023-06-19T07:11:48;10.53;;;6.53;;
27744;SDS011;61387;48.112;8.616;2023-06-19T07:14:15;7.37;;;5.57;;
27744;SDS011;61387;48.112;8.616;2023-06-19T07:16:46;7.43;;;6.20;;
27744;SDS011;61387;48.112;8.616;2023-06-19T07:19:11;9.27;;;5.90;;
27744;SDS011;61387;48.112;8.616;2023-06-19T07:21:37;8.45;;;6.37;;
27744;SDS011;61387;48.112;8.616;2023-06-19T07:24:04;11.55;;;6.12;;
27744;SDS011;61387;48.112;8.616;2023-06-19T07:26:30;8.18;;;6.30;;
27744;SDS011;61387;48.112;8.616;2023-06-19T07:28:56;9.00;;;6.30;;
27744;SDS011;61387;48.112;8.616;2023-06-19T07:31:21;8.27;;;5.90;;
27744;SDS011;61387;48.112;8.616;2023-06-19T07:33:47;8.43;;;5.60;;
27744;SDS011;61387;48.112;8.616;2023-06-19T07:36:13;7.07;;;5.70;;
27744;SDS011;61387;48.112;8.616;2023-06-19T07:38:41;7.10;;;5.50;;
27744;SDS011;61387;48.112;8.616;2023-06-19T07:41:08;9.73;;;5.95;;
27744;SDS011;61387;48.112;8.616;2023-06-19T07:43:35;8.27;;;5.68;;
27744;SDS011;61387;48.112;8.616;2023-06-19T07:46:01;7.93;;;6.47;;
27744;SDS011;61387;48.112;8.616;2023-06-19T07:48:27;7.97;;;5.62;;
27744;SDS011;61387;48.112;8.616;2023-06-19T07:50:53;7.20;;;5.70;;
27744;SDS011;61387;48.112;8.616;2023-06-19T07:53:19;7.97;;;5.87;;
27744;SDS011;61387;48.112;8.616;2023-06-19T07:55:45;7.93;;;5.67;;
27744;SDS011;61387;48.112;8.616;2023-06-19T07:58:11;6.60;;;5.28;;
27744;SDS011;61387;48.112;8.616;2023-06-19T08:00:37;8.33;;;5.93;;
27744;SDS011;61387;48.112;8.616;2023-06-19T08:03:02;7.77;;;5.70;;
27744;SDS011;61387;48.112;8.616;2023-06-19T08:05:28;8.13;;;5.60;;
27744;SDS011;61387;48.112;8.616;2023-06-19T08:07:55;7.93;;;6.30;;
27744;SDS011;61387;48.112;8.616;2023-06-19T08:10:21;9.00;;;6.15;;
27744;SDS011;61387;48.112;8.616;2023-06-19T08:12:47;8.20;;;5.90;;
27744;SDS011;61387;48.112;8.616;2023-06-19T08:15:13;10.35;;;6.45;;
27744;SDS011;61387;48.112;8.616;2023-06-19T08:17:41;8.97;;;7.10;;
27744;SDS011;61387;48.112;8.616;2023-06-19T08:20:07;7.12;;;5.87;;
27744;SDS011;61387;48.112;8.616;2023-06-19T08:22:34;8.57;;;6.05;;
27744;SDS011;61387;48.112;8.616;2023-06-19T08:25:00;8.03;;;5.90;;
27744;SDS011;61387;48.112;8.616;2023-06-19T08:27:26;7.78;;;6.10;;
27744;SDS011;61387;48.112;8.616;2023-06-19T08:29:52;8.50;;;6.00;;
27744;SDS011;61387;48.112;8.616;2023-06-19T08:32:18;8.47;;;5.90;;
27744;SDS011;61387;48.112;8.616;2023-06-19T08:34:44;8.35;;;6.18;;
27744;SDS011;61387;48.112;8.616;2023-06-19T08:37:10;9.27;;;6.17;;
27744;SDS011;61387;48.112;8.616;2023-06-19T08:39:36;7.83;;;6.40;;
27744;SDS011;61387;48.112;8.616;2023-06-19T08:42:05;8.10;;;6.35;;
27744;SDS011;61387;48.112;8.616;2023-06-19T08:44:32;8.00;;;6.15;;
27744;SDS011;61387;48.112;8.616;2023-06-19T08:46:59;9.52;;;6.90;;
27744;SDS011;61387;48.112;8.616;2023-06-19T08:49:28;7.32;;;6.30;;
27744;SDS011;61387;48.112;8.616;2023-06-19T08:51:55;7.28;;;6.37;;
27744;SDS011;61387;48.112;8.616;2023-06-19T08:54:21;7.32;;;5.80;;
27744;SDS011;61387;48.112;8.616;2023-06-19T08:56:47;6.87;;;5.80;;
27744;SDS011;61387;48.112;8.616;2023-06-19T08:59:14;8.37;;;5.93;;
27744;SDS011;61387;48.112;8.616;2023-06-19T09:01:46;8.07;;;6.47;;
27744;SDS011;61387;48.112;8.616;2023-06-19T09:04:20;7.72;;;6.22;;
27744;SDS011;61387;48.112;8.616;2023-06-19T09:09:13;9.03;;;6.40;;
27744;SDS011;61387;48.112;8.616;2023-06-19T09:11:39;7.05;;;6.22;;
27744;SDS011;61387;48.112;8.616;2023-06-19T09:14:08;10.85;;;6.95;;
27744;SDS011;61387;48.112;8.616;2023-06-19T09:16:39;7.65;;;5.90;;
27744;SDS011;61387;48.112;8.616;2023-06-19T09:19:05;7.78;;;5.70;;
27744;SDS011;61387;48.112;8.616;2023-06-19T09:21:31;8.87;;;6.37;;
27744;SDS011;61387;48.112;8.616;2023-06-19T09:24:06;7.60;;;6.10;;
27744;SDS011;61387;48.112;8.616;2023-06-19T09:26:33;7.00;;;5.93;;
27744;SDS011;61387;48.112;8.616;2023-06-19T09:29:09;7.00;;;5.80;;
27744;SDS011;61387;48.112;8.616;2023-06-19T09:31:35;7.32;;;5.10;;
27744;SDS011;61387;48.112;8.616;2023-06-19T09:34:02;7.90;;;6.22;;
27744;SDS011;61387;48.112;8.616;2023-06-19T09:36:28;8.17;;;6.07;;
27744;SDS011;61387;48.112;8.616;2023-06-19T09:38:56;9.23;;;6.35;;
27744;SDS011;61387;48.112;8.616;2023-06-19T09:41:24;6.53;;;5.53;;
27744;SDS011;61387;48.112;8.616;2023-06-19T09:43:50;7.00;;;6.25;;
27744;SDS011;61387;48.112;8.616;2023-06-19T09:46:22;6.22;;;5.40;;
27744;SDS011;61387;48.112;8.616;2023-06-19T09:48:54;8.88;;;5.47;;
27744;SDS011;61387;48.112;8.616;2023-06-19T09:51:26;7.22;;;5.65;;
27744;SDS011;61387;48.112;8.616;2023-06-19T09:53:56;6.43;;;5.53;;
27744;SDS011;61387;48.112;8.616;2023-06-19T09:56:24;7.15;;;5.72;;
27744;SDS011;61387;48.112;8.616;2023-06-19T09:58:52;11.35;;;7.22;;
27744;SDS011;61387;48.112;8.616;2023-06-19T10:01:21;8.05;;;5.97;;
27744;SDS011;61387;48.112;8.616;2023-06-19T10:03:47;6.82;;;5.82;;
27744;SDS011;61387;48.112;8.616;2023-06-19T10:06:16;8.27;;;6.40;;
27744;SDS011;61387;48.112;8.616;2023-06-19T10:08:43;7.12;;;5.57;;
27744;SDS011;61387;48.112;8.616;2023-06-19T10:11:10;7.00;;;5.32;;
27744;SDS011;61387;48.112;8.616;2023-06-19T10:13:37;9.52;;;5.80;;
27744;SDS011;61387;48.112;8.616;2023-06-19T10:16:04;7.40;;;5.85;;
27744;SDS011;61387;48.112;8.616;2023-06-19T10:18:31;7.67;;;5.90;;
27744;SDS011;61387;48.112;8.616;2023-06-19T10:20:57;6.22;;;4.72;;
27744;SDS011;61387;48.112;8.616;2023-06-19T10:23:24;8.00;;;4.97;;
27744;SDS011;61387;48.112;8.616;2023-06-19T10:28:21;8.97;;;6.17;;
27744;SDS011;61387;48.112;8.616;2023-06-19T10:31:07;8.00;;;6.50;;
27744;SDS011;61387;48.112;8.616;2023-06-19T10:33:34;8.55;;;6.55;;
27744;SDS011;61387;48.112;8.616;2023-06-19T10:36:21;8.05;;;6.50;;
27744;SDS011;61387;48.112;8.616;2023-06-19T10:38:51;9.48;;;6.50;;
27744;SDS011;61387;48.112;8.616;2023-06-19T10:43:52;7.53;;;6.03;;
27744;SDS011;61387;48.112;8.616;2023-06-19T10:46:20;7.70;;;6.05;;
27744;SDS011;61387;48.112;8.616;2023-06-19T10:48:46;7.45;;;6.43;;
27744;SDS011;61387;48.112;8.616;2023-06-19T10:51:13;6.80;;;6.03;;
27744;SDS011;61387;48.112;8.616;2023-06-19T10:53:46;7.62;;;5.87;;
27744;SDS011;61387;48.112;8.616;2023-06-19T10:56:12;7.83;;;6.00;;
27744;SDS011;61387;48.112;8.616;2023-06-19T10:58:37;9.15;;;7.20;;
27744;SDS011;61387;48.112;8.616;2023-06-19T11:01:03;8.15;;;6.43;;
27744;SDS011;61387;48.112;8.616;2023-06-19T11:03:28;9.30;;;6.90;;
27744;SDS011;61387;48.112;8.616;2023-06-19T11:05:54;8.17;;;6.13;;
27744;SDS011;61387;48.112;8.616;2023-06-19T11:08:21;6.93;;;6.13;;
27744;SDS011;61387;48.112;8.616;2023-06-19T11:10:47;9.00;;;6.07;;
27744;SDS011;61387;48.112;8.616;2023-06-19T11:13:14;7.85;;;6.30;;
27744;SDS011;61387;48.112;8.616;2023-06-19T11:15:40;9.02;;;6.72;;
27744;SDS011;61387;48.112;8.616;2023-06-19T11:18:06;7.07;;;6.03;;
27744;SDS011;61387;48.112;8.616;2023-06-19T11:20:46;7.37;;;6.10;;
27744;SDS011;61387;48.112;8.616;2023-06-19T11:23:14;8.15;;;5.72;;
27744;SDS011;61387;48.112;8.616;2023-06-19T11:25:40;7.87;;;6.67;;
27744;SDS011;61387;48.112;8.616;2023-06-19T11:28:13;7.90;;;6.45;;
27744;SDS011;61387;48.112;8.616;2023-06-19T11:30:40;8.85;;;6.60;;
27744;SDS011;61387;48.112;8.616;2023-06-19T11:33:16;7.53;;;6.45;;
27744;SDS011;61387;48.112;8.616;2023-06-19T11:35:47;7.93;;;6.22;;
27744;SDS011;61387;48.112;8.616;2023-06-19T11:38:20;8.45;;;5.97;;
27744;SDS011;61387;48.112;8.616;2023-06-19T11:40:47;7.62;;;6.30;;
27744;SDS011;61387;48.112;8.616;2023-06-19T11:43:30;9.05;;;6.32;;
27744;SDS011;61387;48.112;8.616;2023-06-19T11:46:03;8.00;;;6.10;;
27744;SDS011;61387;48.112;8.616;2023-06-19T11:48:30;8.23;;;6.05;;
27744;SDS011;61387;48.112;8.616;2023-06-19T11:50:57;8.10;;;6.78;;
27744;SDS011;61387;48.112;8.616;2023-06-19T11:53:24;7.15;;;6.10;;
27744;SDS011;61387;48.112;8.616;2023-06-19T11:55:55;6.37;;;5.62;;
27744;SDS011;61387;48.112;8.616;2023-06-19T11:58:23;7.15;;;5.85;;
27744;SDS011;61387;48.112;8.616;2023-06-19T12:00:50;9.43;;;6.40;;
27744;SDS011;61387;48.112;8.616;2023-06-19T12:03:19;8.80;;;6.40;;
27744;SDS011;61387;48.112;8.616;2023-06-19T12:05:49;7.68;;;6.10;;
27744;SDS011;61387;48.112;8.616;2023-06-19T12:08:14;8.55;;;6.28;;
27744;SDS011;61387;48.112;8.616;2023-06-19T12:10:41;9.50;;;6.53;;
27744;SDS011;61387;48.112;8.616;2023-06-19T12:13:07;10.90;;;6.60;;
27744;SDS011;61387;48.112;8.616;2023-06-19T12:15:32;8.47;;;6.13;;
27744;SDS011;61387;48.112;8.616;2023-06-19T12:17:58;8.17;;;6.27;;
27744;SDS011;61387;48.112;8.616;2023-06-19T12:20:25;8.07;;;5.77;;
27744;SDS011;61387;48.112;8.616;2023-06-19T12:22:51;6.37;;;5.65;;
27744;SDS011;61387;48.112;8.616;2023-06-19T12:25:17;8.30;;;6.53;;
27744;SDS011;61387;48.112;8.616;2023-06-19T12:27:42;7.63;;;5.80;;
27744;SDS011;61387;48.112;8.616;2023-06-19T12:30:08;7.05;;;6.03;;
27744;SDS011;61387;48.112;8.616;2023-06-19T12:32:34;8.88;;;6.37;;
27744;SDS011;61387;48.112;8.616;2023-06-19T12:35:00;8.70;;;6.60;;
27744;SDS011;61387;48.112;8.616;2023-06-19T12:37:27;7.20;;;6.40;;
27744;SDS011;61387;48.112;8.616;2023-06-19T12:39:53;9.45;;;6.50;;
27744;SDS011;61387;48.112;8.616;2023-06-19T12:42:19;8.97;;;6.90;;
27744;SDS011;61387;48.112;8.616;2023-06-19T12:44:45;7.23;;;6.10;;
27744;SDS011;61387;48.112;8.616;2023-06-19T12:47:11;7.83;;;5.93;;
27744;SDS011;61387;48.112;8.616;2023-06-19T12:49:38;8.15;;;6.20;;
27744;SDS011;61387;48.112;8.616;2023-06-19T12:52:03;10.40;;;7.20;;
27744;SDS011;61387;48.112;8.616;2023-06-19T12:54:29;10.45;;;7.12;;
27744;SDS011;61387;48.112;8.616;2023-06-19T12:56:55;8.07;;;6.72;;
27744;SDS011;61387;48.112;8.616;2023-06-19T12:59:20;9.05;;;6.43;;
27744;SDS011;61387;48.112;8.616;2023-06-19T13:01:46;9.50;;;6.55;;
27744;SDS011;61387;48.112;8.616;2023-06-19T13:04:13;8.70;;;6.07;;
27744;SDS011;61387;48.112;8.616;2023-06-19T13:06:39;7.00;;;6.30;;
27744;SDS011;61387;48.112;8.616;2023-06-19T13:09:05;7.30;;;6.03;;
27744;SDS011;61387;48.112;8.616;2023-06-19T13:11:32;11.38;;;6.55;;
27744;SDS011;61387;48.112;8.616;2023-06-19T13:14:01;7.45;;;5.80;;
27744;SDS011;61387;48.112;8.616;2023-06-19T13:16:27;10.02;;;6.37;;
27744;SDS011;61387;48.112;8.616;2023-06-19T13:18:55;7.05;;;6.25;;
27744;SDS011;61387;48.112;8.616;2023-06-19T13:21:21;11.00;;;6.75;;
27744;SDS011;61387;48.112;8.616;2023-06-19T13:23:46;7.17;;;6.47;;
27744;SDS011;61387;48.112;8.616;2023-06-19T13:26:14;8.32;;;6.47;;
27744;SDS011;61387;48.112;8.616;2023-06-19T13:28:40;10.55;;;6.15;;
27744;SDS011;61387;48.112;8.616;2023-06-19T13:31:09;8.13;;;5.90;;
27744;SDS011;61387;48.112;8.616;2023-06-19T13:33:34;9.95;;;6.53;;
27744;SDS011;61387;48.112;8.616;2023-06-19T13:36:00;10.27;;;6.67;;
27744;SDS011;61387;48.112;8.616;2023-06-19T13:38:26;7.47;;;6.28;;
27744;SDS011;61387;48.112;8.616;2023-06-19T13:40:52;8.60;;;6.73;;
27744;SDS011;61387;48.112;8.616;2023-06-19T13:43:18;7.87;;;6.40;;
27744;SDS011;61387;48.112;8.616;2023-06-19T13:45:48;6.87;;;5.82;;
27744;SDS011;61387;48.112;8.616;2023-06-19T13:48:14;7.57;;;6.37;;
27744;SDS011;61387;48.112;8.616;2023-06-19T13:50:40;8.55;;;6.30;;
27744;SDS011;61387;48.112;8.616;2023-06-19T13:53:05;10.63;;;6.40;;
27744;SDS011;61387;48.112;8.616;2023-06-19T13:55:31;8.30;;;6.37;;
27744;SDS011;61387;48.112;8.616;2023-06-19T13:57:57;8.13;;;6.10;;
27744;SDS011;61387;48.112;8.616;2023-06-19T14:00:23;7.73;;;6.13;;
27744;SDS011;61387;48.112;8.616;2023-06-19T14:02:49;7.85;;;5.97;;
27744;SDS011;61387;48.112;8.616;2023-06-19T14:05:15;9.90;;;6.83;;
27744;SDS011;61387;48.112;8.616;2023-06-19T14:07:41;10.52;;;6.87;;
27744;SDS011;61387;48.112;8.616;2023-06-19T14:10:08;8.57;;;7.22;;
27744;SDS011;61387;48.112;8.616;2023-06-19T14:12:34;10.30;;;6.97;;
27744;SDS011;61387;48.112;8.616;2023-06-19T14:15:00;12.13;;;7.40;;
27744;SDS011;61387;48.112;8.616;2023-06-19T14:17:26;12.43;;;6.87;;
27744;SDS011;61387;48.112;8.616;2023-06-19T14:19:51;11.87;;;7.40;;
27744;SDS011;61387;48.112;8.616;2023-06-19T14:22:18;9.98;;;7.40;;
27744;SDS011;61387;48.112;8.616;2023-06-19T14:24:44;10.00;;;7.43;;
27744;SDS011;61387;48.112;8.616;2023-06-19T14:27:10;9.05;;;7.25;;
27744;SDS011;61387;48.112;8.616;2023-06-19T14:29:37;10.82;;;7.05;;
27744;SDS011;61387;48.112;8.616;2023-06-19T14:32:03;8.80;;;7.70;;
27744;SDS011;61387;48.112;8.616;2023-06-19T14:34:28;11.00;;;7.75;;
27744;SDS011;61387;48.112;8.616;2023-06-19T14:36:54;9.30;;;7.43;;
27744;SDS011;61387;48.112;8.616;2023-06-19T14:39:20;8.27;;;6.78;;
27744;SDS011;61387;48.112;8.616;2023-06-19T14:41:46;10.87;;;7.77;;
27744;SDS011;61387;48.112;8.616;2023-06-19T14:44:12;8.43;;;6.40;;
27744;SDS011;61387;48.112;8.616;2023-06-19T14:46:37;7.87;;;6.35;;
27744;SDS011;61387;48.112;8.616;2023-06-19T14:49:09;9.52;;;6.95;;
27744;SDS011;61387;48.112;8.616;2023-06-19T14:51:35;11.27;;;6.85;;
27744;SDS011;61387;48.112;8.616;2023-06-19T14:54:01;9.87;;;7.03;;